createdAt,value
2023-05-12T00:00:13.526Z,77.85
2023-05-12T00:02:40.617Z,77.47
2023-05-12T00:05:08.623Z,72.00
2023-05-12T00:07:35.621Z,72.03
2023-05-12T00:10:02.578Z,74.68
2023-05-12T00:12:29.562Z,75.10
2023-05-12T00:14:56.586Z,74.88
2023-05-12T00:17:24.880Z,76.05
2023-05-12T00:19:51.856Z,74.20
2023-05-12T00:22:18.841Z,79.70
2023-05-12T00:24:45.989Z,76.65
2023-05-12T00:27:12.956Z,72.70
2023-05-12T00:29:39.998Z,74.13
2023-05-12T00:32:07.196Z,75.22
2023-05-12T00:34:35.490Z,77.63
2023-05-12T00:37:02.462Z,79.50
2023-05-12T00:39:29.447Z,76.03
2023-05-12T00:41:57.085Z,76.18
2023-05-12T00:44:24.004Z,77.78
2023-05-12T00:46:51.430Z,78.20
2023-05-12T00:49:19.057Z,81.55
2023-05-12T00:51:47.395Z,81.63
2023-05-12T00:54:14.588Z,83.80
2023-05-12T00:56:42.085Z,79.95
2023-05-12T00:59:09.218Z,84.47
2023-05-12T01:01:36.622Z,83.53
2023-05-12T01:04:04.293Z,83.60
2023-05-12T01:06:42.694Z,87.13
2023-05-12T01:09:11.579Z,86.72
2023-05-12T01:11:38.661Z,86.80
2023-05-12T01:14:05.605Z,87.80
2023-05-12T01:16:39.334Z,81.57
2023-05-12T01:19:08.296Z,87.55
2023-05-12T01:21:35.269Z,92.90
2023-05-12T01:24:08.513Z,88.55
2023-05-12T01:26:37.137Z,87.22
2023-05-12T01:29:04.912Z,92.97
2023-05-12T01:31:33.037Z,93.53
2023-05-12T01:34:00.012Z,95.10
2023-05-12T01:36:26.958Z,102.35
2023-05-12T01:38:54.140Z,97.03
2023-05-12T01:41:21.239Z,30.42
2023-05-12T01:43:49.623Z,108.45
2023-05-12T01:46:16.535Z,106.63
2023-05-12T01:48:43.525Z,103.10
2023-05-12T01:51:10.593Z,106.65
2023-05-12T01:53:37.566Z,107.95
2023-05-12T01:56:04.801Z,103.10
2023-05-12T01:58:31.682Z,106.53
2023-05-12T02:00:59.934Z,105.80
2023-05-12T02:03:26.940Z,110.00
2023-05-12T02:05:53.982Z,115.50
2023-05-12T02:08:20.924Z,114.10
2023-05-12T02:10:47.814Z,108.60
2023-05-12T02:13:14.867Z,114.85
2023-05-12T02:15:41.776Z,105.65
2023-05-12T02:18:10.063Z,106.20
2023-05-12T02:20:37.321Z,106.35
2023-05-12T02:23:04.266Z,99.85
2023-05-12T02:25:31.178Z,103.88
2023-05-12T02:27:58.233Z,97.03
2023-05-12T02:30:25.164Z,97.47
2023-05-12T02:32:52.163Z,91.03
2023-05-12T02:35:20.533Z,95.47
2023-05-12T02:37:47.435Z,90.65
2023-05-12T02:40:14.792Z,97.22
2023-05-12T02:42:41.789Z,92.05
2023-05-12T02:45:09.781Z,91.30
2023-05-12T02:47:36.758Z,90.25
2023-05-12T02:50:04.095Z,83.88
2023-05-12T02:52:32.632Z,85.50
2023-05-12T02:54:59.522Z,86.93
2023-05-12T02:57:26.486Z,85.35
2023-05-12T02:59:53.371Z,85.93
2023-05-12T03:02:20.372Z,81.97
2023-05-12T03:04:47.327Z,85.03
2023-05-12T03:07:14.258Z,85.68
2023-05-12T03:09:42.634Z,80.93
2023-05-12T03:12:10.006Z,81.00
2023-05-12T03:14:36.908Z,87.43
2023-05-12T03:17:04.027Z,85.43
2023-05-12T03:19:30.958Z,87.55
2023-05-12T03:21:59.497Z,86.45
2023-05-12T03:24:26.436Z,86.13
2023-05-12T03:26:55.029Z,83.95
2023-05-12T03:29:22.179Z,84.35
2023-05-12T03:31:49.092Z,86.82
2023-05-12T03:34:16.098Z,88.55
2023-05-12T03:36:42.995Z,84.85
2023-05-12T03:39:09.913Z,92.93
2023-05-12T03:41:37.070Z,90.65
2023-05-12T03:44:05.776Z,89.65
2023-05-12T03:46:32.744Z,87.18
2023-05-12T03:48:59.681Z,96.63
2023-05-12T03:51:26.652Z,88.78
2023-05-12T03:53:53.588Z,89.25
2023-05-12T03:56:20.488Z,89.80
2023-05-12T03:58:47.434Z,90.63
2023-05-12T04:01:15.769Z,87.85
2023-05-12T04:03:42.801Z,67.18
2023-05-12T04:06:09.909Z,52.05
2023-05-12T04:08:37.190Z,53.95
2023-05-12T04:11:05.160Z,47.42
2023-05-12T04:13:32.090Z,41.60
2023-05-12T04:16:00.250Z,33.67
2023-05-12T04:18:28.922Z,34.35
2023-05-12T04:20:56.036Z,34.10
2023-05-12T04:23:23.077Z,32.83
2023-05-12T04:25:50.085Z,31.95
2023-05-12T04:28:16.981Z,31.45
2023-05-12T04:30:43.909Z,29.23
2023-05-12T04:33:10.981Z,28.13
2023-05-12T04:35:39.436Z,28.10
2023-05-12T04:38:06.372Z,31.55
2023-05-12T04:40:34.849Z,31.40
2023-05-12T04:43:02.226Z,32.28
2023-05-12T04:45:29.103Z,35.50
2023-05-12T04:47:56.111Z,40.78
2023-05-12T04:50:23.067Z,38.28
2023-05-12T04:52:51.387Z,41.85
2023-05-12T04:55:18.513Z,38.95
2023-05-12T04:57:45.695Z,38.78
2023-05-12T05:00:13.422Z,39.75
2023-05-12T05:02:40.496Z,40.90
2023-05-12T05:05:09.400Z,39.17
2023-05-12T05:07:42.052Z,31.40
2023-05-12T05:10:13.298Z,35.72
2023-05-12T05:12:46.495Z,30.88
2023-05-12T05:18:06.891Z,21.50
2023-05-12T05:20:42.887Z,23.05
2023-05-12T05:23:27.400Z,22.80
2023-05-12T05:25:58.091Z,22.38
2023-05-12T05:28:29.081Z,20.10
2023-05-12T05:30:56.069Z,19.92
2023-05-12T05:33:23.261Z,19.75
2023-05-12T05:35:50.339Z,18.85
2023-05-12T05:38:17.458Z,16.13
2023-05-12T05:40:52.943Z,15.52
2023-05-12T05:43:22.374Z,20.85
2023-05-12T05:45:49.997Z,17.83
2023-05-12T05:48:17.179Z,18.80
2023-05-12T05:50:44.482Z,16.15
2023-05-12T05:53:11.485Z,18.45
2023-05-12T05:55:40.247Z,17.60
2023-05-12T05:58:11.874Z,17.08
2023-05-12T06:00:45.332Z,17.80
2023-05-12T06:03:13.272Z,19.73
2023-05-12T06:05:46.498Z,17.58
2023-05-12T06:08:19.260Z,19.45
2023-05-12T06:10:49.869Z,18.05
2023-05-12T06:13:34.364Z,18.77
2023-05-12T06:16:13.113Z,16.17
2023-05-12T06:18:53.963Z,16.77
2023-05-12T06:21:21.290Z,18.33
2023-05-12T06:23:50.354Z,18.55
2023-05-12T06:26:17.803Z,17.92
2023-05-12T06:29:18.358Z,19.25
2023-05-12T06:31:54.899Z,18.67
2023-05-12T06:34:27.018Z,16.17
2023-05-12T06:36:55.184Z,15.82
2023-05-12T06:39:48.569Z,16.13
2023-05-12T06:49:44.944Z,15.55
2023-05-12T06:52:13.957Z,13.68
2023-05-12T06:55:03.993Z,15.68
2023-05-12T06:57:40.865Z,14.73
2023-05-12T07:00:59.684Z,13.98
2023-05-12T07:07:18.971Z,13.27
2023-05-12T07:11:12.940Z,9.48
2023-05-12T07:13:43.596Z,9.73
2023-05-12T07:22:39.124Z,7.22
2023-05-12T07:28:54.382Z,6.85
2023-05-12T07:31:24.519Z,5.53
2023-05-12T07:33:55.900Z,6.18
2023-05-12T07:36:23.408Z,5.20
2023-05-12T07:38:50.880Z,6.00
2023-05-12T07:41:18.016Z,5.45
2023-05-12T07:44:09.788Z,5.47
2023-05-12T07:47:03.479Z,7.75
2023-05-12T07:49:30.699Z,5.05
2023-05-12T07:55:10.121Z,6.32
2023-05-12T07:57:55.386Z,5.28
2023-05-12T08:03:35.126Z,6.97
2023-05-12T08:06:04.416Z,5.63
2023-05-12T08:08:43.275Z,6.70
2023-05-12T08:11:10.898Z,5.90
2023-05-12T08:13:38.303Z,6.18
2023-05-12T08:16:57.877Z,5.35
2023-05-12T08:22:13.900Z,6.88
2023-05-12T08:24:44.882Z,5.20
2023-05-12T08:27:12.421Z,4.93
2023-05-12T08:29:39.612Z,7.38
2023-05-12T08:32:08.047Z,5.75
2023-05-12T08:34:42.437Z,5.72
2023-05-12T08:37:09.671Z,4.85
2023-05-12T08:39:37.342Z,5.38
2023-05-12T08:45:10.948Z,5.25
2023-05-12T08:47:38.540Z,5.22
2023-05-12T08:50:09.181Z,4.57
2023-05-12T08:52:36.665Z,4.90
2023-05-12T08:55:04.950Z,4.28
2023-05-12T08:57:32.292Z,4.28
2023-05-12T08:59:59.478Z,4.18
2023-05-12T09:02:35.217Z,3.70
2023-05-12T09:05:13.427Z,4.22
2023-05-12T09:07:43.430Z,4.20
2023-05-12T09:10:25.998Z,4.43
2023-05-12T09:13:04.591Z,6.53
2023-05-12T09:15:35.863Z,4.93
2023-05-12T09:18:03.107Z,4.63
2023-05-12T09:20:32.222Z,4.63
2023-05-12T09:22:59.519Z,3.70
2023-05-12T09:25:26.560Z,4.75
2023-05-12T09:27:55.581Z,4.32
2023-05-12T09:30:30.703Z,4.65
2023-05-12T09:33:06.531Z,4.05
2023-05-12T09:35:38.513Z,4.38
2023-05-12T09:38:09.434Z,4.20
2023-05-12T09:40:36.673Z,4.90
2023-05-12T09:43:03.859Z,4.57
2023-05-12T09:45:34.742Z,6.28
2023-05-12T09:48:08.556Z,4.15
2023-05-12T09:50:47.385Z,4.15
2023-05-12T09:53:15.534Z,3.15
2023-05-12T09:55:44.006Z,4.32
2023-05-12T09:58:13.857Z,6.10
2023-05-12T10:01:06.009Z,3.00
2023-05-12T10:03:30.116Z,2.97
2023-05-12T10:06:00.630Z,2.83
2023-05-12T10:08:32.201Z,2.70
2023-05-12T10:11:00.682Z,3.20
2023-05-12T10:13:28.903Z,2.72
2023-05-12T10:15:57.594Z,2.72
2023-05-12T10:18:24.983Z,2.33
2023-05-12T10:20:52.845Z,2.63
2023-05-12T10:23:21.924Z,2.60
2023-05-12T10:25:50.368Z,2.60
2023-05-12T10:28:17.470Z,1.85
2023-05-12T10:30:46.348Z,2.35
2023-05-12T10:33:13.444Z,2.05
2023-05-12T10:35:43.710Z,4.28
2023-05-12T10:38:12.493Z,2.17
2023-05-12T10:40:52.494Z,2.22
2023-05-12T10:43:22.674Z,3.72
2023-05-12T10:46:08.061Z,2.45
2023-05-12T10:48:35.132Z,2.65
2023-05-12T10:51:07.995Z,1.88
2023-05-12T10:53:47.741Z,2.20
2023-05-12T10:56:22.641Z,1.88
2023-05-12T10:59:22.883Z,3.53
2023-05-12T11:02:02.199Z,2.40
2023-05-12T11:04:41.589Z,3.33
2023-05-12T11:07:09.983Z,3.10
2023-05-12T11:09:43.424Z,3.13
2023-05-12T11:12:16.318Z,4.00
2023-05-12T11:14:45.124Z,3.92
2023-05-12T11:17:12.911Z,6.22
2023-05-12T11:19:44.548Z,4.45
2023-05-12T11:22:12.188Z,4.00
2023-05-12T11:24:40.680Z,4.18
2023-05-12T11:27:13.921Z,4.30
2023-05-12T11:29:42.971Z,4.45
2023-05-12T11:32:10.972Z,3.60
2023-05-12T11:34:38.413Z,3.20
2023-05-12T11:37:06.019Z,3.13
2023-05-12T11:39:33.325Z,3.60
2023-05-12T11:42:12.230Z,2.83
2023-05-12T11:44:48.190Z,3.40
2023-05-12T11:47:16.448Z,2.50
2023-05-12T11:49:48.650Z,2.33
2023-05-12T11:52:16.561Z,2.67
2023-05-12T11:54:48.740Z,2.35
2023-05-12T11:57:25.712Z,2.88
2023-05-12T11:59:59.232Z,2.45
2023-05-12T12:02:26.642Z,2.72
2023-05-12T12:04:53.720Z,2.50
2023-05-12T12:07:29.491Z,2.65
2023-05-12T12:09:56.585Z,2.78
2023-05-12T12:12:23.918Z,2.85
2023-05-12T12:14:50.934Z,2.67
2023-05-12T12:17:19.268Z,2.75
2023-05-12T12:19:46.227Z,2.72
2023-05-12T12:22:13.310Z,2.72
2023-05-12T12:24:40.313Z,4.05
2023-05-12T12:27:07.362Z,2.60
2023-05-12T12:29:34.417Z,2.33
2023-05-12T12:32:01.467Z,3.10
2023-05-12T12:34:29.806Z,2.53
2023-05-12T12:36:56.761Z,3.03
2023-05-12T12:39:23.658Z,4.63
2023-05-12T12:41:50.668Z,5.95
2023-05-12T12:44:17.675Z,6.18
2023-05-12T12:46:44.775Z,6.35
2023-05-12T12:49:11.817Z,6.18
2023-05-12T12:51:46.156Z,6.55
2023-05-12T12:54:14.262Z,7.25
2023-05-12T12:56:41.226Z,7.47
2023-05-12T12:59:08.178Z,7.53
2023-05-12T13:01:38.132Z,7.13
2023-05-12T13:04:05.398Z,8.50
2023-05-12T13:06:32.303Z,8.65
2023-05-12T13:09:00.632Z,7.80
2023-05-12T13:11:27.816Z,8.32
2023-05-12T13:13:54.911Z,8.80
2023-05-12T13:16:21.960Z,8.98
2023-05-12T13:18:49.096Z,7.97
2023-05-12T13:21:16.106Z,7.15
2023-05-12T13:23:43.050Z,6.88
2023-05-12T13:26:11.660Z,7.43
2023-05-12T13:28:38.686Z,8.45
2023-05-12T13:31:06.276Z,7.03
2023-05-12T13:33:33.558Z,7.43
2023-05-12T13:36:00.493Z,7.40
2023-05-12T13:38:27.530Z,6.65
2023-05-12T13:40:54.579Z,7.80
2023-05-12T13:43:22.987Z,6.00
2023-05-12T13:45:50.019Z,5.28
2023-05-12T13:48:17.077Z,5.20
2023-05-12T13:50:44.154Z,6.07
2023-05-12T13:53:11.286Z,5.32
2023-05-12T13:55:40.666Z,5.38
2023-05-12T13:58:08.013Z,5.80
2023-05-12T14:00:36.526Z,6.15
2023-05-12T14:03:03.580Z,6.18
2023-05-12T14:05:30.718Z,6.53
2023-05-12T14:07:58.007Z,6.07
2023-05-12T14:10:25.069Z,6.47
2023-05-12T14:12:52.018Z,6.70
2023-05-12T14:15:32.396Z,7.07
2023-05-12T14:18:01.223Z,9.70
2023-05-12T14:20:28.260Z,6.88
2023-05-12T14:22:55.288Z,5.47
2023-05-12T14:25:22.928Z,5.55
2023-05-12T14:27:50.343Z,6.18
2023-05-12T14:30:17.447Z,6.68
2023-05-12T14:32:44.420Z,6.38
2023-05-12T14:35:12.778Z,5.65
2023-05-12T14:37:40.059Z,5.15
2023-05-12T14:40:08.466Z,5.80
2023-05-12T14:42:35.412Z,4.25
2023-05-12T14:45:02.426Z,3.75
2023-05-12T14:47:29.475Z,5.07
2023-05-12T14:49:56.557Z,4.53
2023-05-12T14:52:25.125Z,2.92
2023-05-12T14:54:52.224Z,4.10
2023-05-12T14:57:19.307Z,2.35
2023-05-12T14:59:46.320Z,3.45
2023-05-12T15:02:13.690Z,2.42
2023-05-12T15:04:40.948Z,2.95
2023-05-12T15:07:07.958Z,2.95
2023-05-12T15:09:36.475Z,1.88
2023-05-12T15:12:03.397Z,1.92
2023-05-12T15:14:30.339Z,2.17
2023-05-12T15:16:57.321Z,1.75
2023-05-12T15:19:24.358Z,1.63
2023-05-12T15:21:51.295Z,2.58
2023-05-12T15:24:18.277Z,1.77
2023-05-12T15:26:46.730Z,1.85
2023-05-12T15:29:13.683Z,3.58
2023-05-12T15:31:40.770Z,1.63
2023-05-12T15:34:08.000Z,2.08
2023-05-12T15:36:35.077Z,2.45
2023-05-12T15:39:02.005Z,1.67
2023-05-12T15:41:29.150Z,2.03
2023-05-12T15:43:57.690Z,1.45
2023-05-12T15:46:24.661Z,1.70
2023-05-12T15:48:52.053Z,2.47
2023-05-12T15:51:19.362Z,1.77
2023-05-12T15:53:46.374Z,3.17
2023-05-12T15:56:13.389Z,1.95
2023-05-12T15:58:40.601Z,2.67
2023-05-12T16:01:08.992Z,3.05
2023-05-12T16:03:36.212Z,1.77
2023-05-12T16:06:03.287Z,1.92
2023-05-12T16:08:30.327Z,3.08
2023-05-12T16:10:57.269Z,2.20
2023-05-12T16:13:24.364Z,3.03
2023-05-12T16:15:54.155Z,2.30
2023-05-12T16:18:22.607Z,2.28
2023-05-12T16:20:52.037Z,3.05
2023-05-12T16:23:19.021Z,3.60
2023-05-12T16:25:46.006Z,4.28
2023-05-12T16:28:13.142Z,2.53
2023-05-12T16:30:40.112Z,5.63
2023-05-12T16:33:07.178Z,4.22
2023-05-12T16:35:35.872Z,3.08
2023-05-12T16:38:02.964Z,3.45
2023-05-12T16:40:30.024Z,4.50
2023-05-12T16:42:57.020Z,3.78
2023-05-12T16:45:24.205Z,3.67
2023-05-12T16:47:51.484Z,3.97
2023-05-12T16:50:18.937Z,3.30
2023-05-12T16:52:47.654Z,5.75
2023-05-12T16:55:14.738Z,3.38
2023-05-12T16:57:43.339Z,4.20
2023-05-12T17:00:12.030Z,4.85
2023-05-12T17:02:39.190Z,4.82
2023-05-12T17:05:07.110Z,4.07
2023-05-12T17:07:34.359Z,4.43
2023-05-12T17:10:02.794Z,4.70
2023-05-12T17:12:29.801Z,8.55
2023-05-12T17:15:06.946Z,4.38
2023-05-12T17:17:35.036Z,5.85
2023-05-12T17:20:02.244Z,5.30
2023-05-12T17:22:29.458Z,6.32
2023-05-12T17:24:56.484Z,7.15
2023-05-12T17:27:24.828Z,5.00
2023-05-12T17:29:51.953Z,7.10
2023-05-12T17:32:18.932Z,6.35
2023-05-12T17:34:49.353Z,5.85
2023-05-12T17:37:16.435Z,6.13
2023-05-12T17:39:43.540Z,5.85
2023-05-12T17:42:10.569Z,5.10
2023-05-12T17:44:38.976Z,6.57
2023-05-12T17:47:06.589Z,6.32
2023-05-12T17:49:33.892Z,6.15
2023-05-12T17:52:00.862Z,6.00
2023-05-12T17:54:27.823Z,7.15
2023-05-12T17:56:54.765Z,6.97
2023-05-12T17:59:21.810Z,6.28
2023-05-12T18:01:50.133Z,8.30
2023-05-12T18:04:17.136Z,8.63
2023-05-12T18:06:44.149Z,6.72
2023-05-12T18:09:11.106Z,8.10
2023-05-12T18:11:38.103Z,6.57
2023-05-12T18:14:05.025Z,7.75
2023-05-12T18:16:32.481Z,7.57
2023-05-12T18:19:01.046Z,8.10
2023-05-12T18:21:28.051Z,6.40
2023-05-12T18:23:55.408Z,9.05
2023-05-12T18:26:22.561Z,6.65
2023-05-12T18:28:49.527Z,7.43
2023-05-12T18:31:16.713Z,7.07
2023-05-12T18:33:46.600Z,6.45
2023-05-12T18:36:15.281Z,8.18
2023-05-12T18:38:42.470Z,10.70
2023-05-12T18:41:09.740Z,7.63
2023-05-12T18:43:36.898Z,7.95
2023-05-12T18:46:04.424Z,9.90
2023-05-12T18:48:31.567Z,7.70
2023-05-12T18:50:58.968Z,9.07
2023-05-12T18:53:27.582Z,7.63
2023-05-12T18:55:54.536Z,8.98
2023-05-12T18:58:21.475Z,8.73
2023-05-12T19:00:48.525Z,10.25
2023-05-12T19:03:15.471Z,8.77
2023-05-12T19:05:42.469Z,9.23
2023-05-12T19:08:09.476Z,10.93
2023-05-12T19:10:39.664Z,7.38
2023-05-12T19:13:07.121Z,8.70
2023-05-12T19:15:34.198Z,8.70
2023-05-12T19:18:01.252Z,8.25
2023-05-12T19:20:28.349Z,8.15
2023-05-12T19:22:55.401Z,9.50
2023-05-12T19:25:22.785Z,8.43
2023-05-12T19:27:51.706Z,8.98
2023-05-12T19:30:18.692Z,10.38
2023-05-12T19:32:46.005Z,10.68
2023-05-12T19:35:14.715Z,9.80
2023-05-12T19:37:42.267Z,12.35
2023-05-12T19:40:09.873Z,10.48
2023-05-12T19:42:36.897Z,16.50
2023-05-12T19:45:06.612Z,11.10
2023-05-12T19:47:33.809Z,10.80
2023-05-12T19:50:01.042Z,10.90
2023-05-12T19:52:28.074Z,11.38
2023-05-12T19:54:55.125Z,11.50
2023-05-12T19:57:22.191Z,12.85
2023-05-12T19:59:49.643Z,11.60
2023-05-12T20:02:18.252Z,12.95
2023-05-12T20:04:45.529Z,12.23
2023-05-12T20:07:12.487Z,10.93
2023-05-12T20:09:39.493Z,11.60
2023-05-12T20:12:07.733Z,11.35
2023-05-12T20:14:35.090Z,11.73
2023-05-12T20:17:02.272Z,12.25
2023-05-12T20:19:30.743Z,13.55
2023-05-12T20:21:57.831Z,11.93
2023-05-12T20:24:24.990Z,11.57
2023-05-12T20:26:52.029Z,11.85
2023-05-12T20:29:19.027Z,11.80
2023-05-12T20:31:46.159Z,13.70
2023-05-12T20:34:13.132Z,12.23
2023-05-12T20:36:41.518Z,12.75
2023-05-12T20:39:08.464Z,11.60
2023-05-12T20:41:35.710Z,14.48
2023-05-12T20:44:03.071Z,13.55
2023-05-12T20:46:30.176Z,12.52
2023-05-12T20:48:57.251Z,12.43
2023-05-12T20:51:24.507Z,11.95
2023-05-12T20:53:53.343Z,14.23
2023-05-12T20:56:20.908Z,12.30
2023-05-12T20:58:47.957Z,13.13
2023-05-12T21:01:14.989Z,12.10
2023-05-12T21:03:42.187Z,13.35
2023-05-12T21:06:09.897Z,14.40
2023-05-12T21:08:36.859Z,13.90
2023-05-12T21:11:13.382Z,14.68
2023-05-12T21:13:40.301Z,14.80
2023-05-12T21:16:07.391Z,20.17
2023-05-12T21:18:34.457Z,15.85
2023-05-12T21:21:01.425Z,16.73
2023-05-12T21:23:28.835Z,15.30
2023-05-12T21:25:55.832Z,15.55
2023-05-12T21:28:24.327Z,15.05
2023-05-12T21:30:51.350Z,15.75
2023-05-12T21:33:18.358Z,14.52
2023-05-12T21:35:45.422Z,15.05
2023-05-12T21:38:12.654Z,13.88
2023-05-12T21:40:39.594Z,13.65
2023-05-12T21:43:06.709Z,13.73
2023-05-12T21:45:35.038Z,13.18
2023-05-12T21:48:02.079Z,12.75
2023-05-12T21:50:29.193Z,12.35
2023-05-12T21:52:56.137Z,13.63
2023-05-12T21:55:23.294Z,11.98
2023-05-12T21:57:50.254Z,14.13
2023-05-12T22:00:17.559Z,11.52
2023-05-12T22:02:46.754Z,13.90
2023-05-12T22:05:13.961Z,13.65
2023-05-12T22:07:40.974Z,13.10
2023-05-12T22:10:08.544Z,12.52
2023-05-12T22:12:35.502Z,12.32
2023-05-12T22:15:02.701Z,12.50
2023-05-12T22:17:29.680Z,12.00
2023-05-12T22:19:58.004Z,12.95
2023-05-12T22:22:25.141Z,10.60
2023-05-12T22:24:52.120Z,11.40
2023-05-12T22:27:19.117Z,11.07
2023-05-12T22:29:46.228Z,10.88
2023-05-12T22:32:13.308Z,11.88
2023-05-12T22:34:40.499Z,12.02
2023-05-12T22:37:08.947Z,15.35
2023-05-12T22:39:35.845Z,22.17
2023-05-12T22:42:02.891Z,20.85
2023-05-12T22:44:29.938Z,20.83
2023-05-12T22:46:57.195Z,16.85
2023-05-12T22:49:26.350Z,14.02
2023-05-12T22:51:53.395Z,13.30
2023-05-12T22:54:21.757Z,9.63
2023-05-12T22:56:48.826Z,9.63
2023-05-12T22:59:15.953Z,11.95
2023-05-12T23:01:42.913Z,8.98
2023-05-12T23:04:09.920Z,10.50
2023-05-12T23:06:36.942Z,8.65
2023-05-12T23:09:04.106Z,10.25
2023-05-12T23:11:32.539Z,10.48
2023-05-12T23:13:59.519Z,10.00
2023-05-12T23:16:26.578Z,11.23
2023-05-12T23:18:53.613Z,9.10
2023-05-12T23:21:20.589Z,9.57
2023-05-12T23:23:47.565Z,12.60
2023-05-12T23:26:14.464Z,13.25
2023-05-12T23:28:42.795Z,14.73
2023-05-12T23:31:09.743Z,18.17
2023-05-12T23:33:36.830Z,14.43
2023-05-12T23:36:04.602Z,17.38
2023-05-12T23:38:31.589Z,17.67
2023-05-12T23:40:58.532Z,22.30
2023-05-12T23:43:25.517Z,15.57
2023-05-12T23:45:54.339Z,14.85
2023-05-12T23:48:21.421Z,14.10
2023-05-12T23:50:48.429Z,12.48
2023-05-12T23:53:15.375Z,12.40
2023-05-12T23:55:42.368Z,13.50
2023-05-12T23:58:09.361Z,11.73
